Time;durP1;ratioP1;P1;durP2;ratioP2;P2;SDS_P1;SDS_P2;PMS_P1;PMS_P2;Temp;Humidity;BMP_temperature;BMP_pressure;BME280_temperature;BME280_humidity;BME280_pressure;Samples;Min_cycle;Max_cycle;Signal;HPM_P1;HPM_P2
2021/01/26 00:01:23;;;;;;;92.20;55.58;;;;;;;5.12;75.10;101645.47;4861060;29;20033;-88
2021/01/26 00:03:50;;;;;;;84.13;53.95;;;;;;;4.77;74.57;101572.81;4874172;29;20033;-86
2021/01/26 00:06:18;;;;;;;90.90;55.45;;;;;;;5.20;74.88;101651.69;4866904;29;20024;-86
2021/01/26 00:08:45;;;;;;;82.57;53.53;;;;;;;4.75;74.00;101561.19;4879681;29;20039;-85
2021/01/26 00:11:12;;;;;;;83.75;53.50;;;;;;;4.99;73.92;101589.34;4879679;29;20040;-86
2021/01/26 00:13:39;;;;;;;73.78;47.38;;;;;;;4.84;73.90;101558.34;4857182;29;20085;-84
2021/01/26 00:16:06;;;;;;;85.55;53.15;;;;;;;5.19;74.41;101599.72;4856825;29;20085;-85
2021/01/26 00:18:33;;;;;;;80.32;50.25;;;;;;;4.78;74.53;101544.34;4880923;29;20088;-85
2021/01/26 00:21:00;;;;;;;80.28;50.45;;;;;;;5.65;73.86;101669.09;4875924;29;20041;-83
2021/01/26 00:23:27;;;;;;;82.38;51.85;;;;;;;5.09;73.48;101589.03;4877417;29;20033;-84
2021/01/26 00:25:54;;;;;;;83.05;53.78;;;;;;;4.64;75.39;101556.19;4860927;29;20033;-85
2021/01/26 00:28:21;;;;;;;90.07;56.15;;;;;;;5.17;77.16;101678.69;4879435;29;20039;-86
2021/01/26 00:30:48;;;;;;;86.10;52.40;;;;;;;5.21;75.43;101619.59;4882194;29;20104;-84
2021/01/26 00:33:18;;;;;;;88.43;52.55;;;;;;;4.29;75.75;101473.66;4900853;29;20112;-85
2021/01/26 00:35:45;;;;;;;;;;;;;;;5.73;75.54;101677.22;4883704;29;20025;-85
2021/01/26 00:38:12;;;;;;;84.68;52.05;;;;;;;5.39;77.48;101648.50;4873150;29;19922;-85
2021/01/26 00:40:39;;;;;;;96.00;60.50;;;;;;;4.57;78.52;101558.84;4882600;29;20033;-85
2021/01/26 00:43:07;;;;;;;93.63;57.92;;;;;;;4.71;79.33;101619.38;4882907;29;20048;-84
2021/01/26 00:45:35;;;;;;;90.80;58.20;;;;;;;5.22;78.98;101681.69;4899813;29;20024;-84
2021/01/26 00:48:02;;;;;;;92.22;57.00;;;;;;;4.18;81.06;101577.28;4882290;29;20031;-85
2021/01/26 00:50:29;;;;;;;102.30;62.55;;;;;;;4.47;83.10;101679.78;4899737;29;20059;-87
2021/01/26 00:52:56;;;;;;;104.45;59.85;;;;;;;4.31;82.96;101609.53;4900167;29;20025;-85
2021/01/26 00:55:25;;;;;;;97.95;59.13;;;;;;;4.78;83.07;101677.94;4882677;29;20111;-86
2021/01/26 00:57:52;;;;;;;99.13;58.58;;;;;;;3.83;83.23;101547.66;4882474;29;20071;-85
2021/01/26 01:00:24;;;;;;;96.60;58.03;;;;;;;4.38;83.15;101615.97;4878957;29;20036;-83
2021/01/26 01:02:51;;;;;;;98.22;57.42;;;;;;;4.87;82.52;101663.06;4865848;29;20054;-86
2021/01/26 01:05:18;;;;;;;77.97;51.50;;;;;;;3.89;80.12;101491.25;4879116;29;20123;-86
2021/01/26 01:07:45;;;;;;;78.50;49.90;;;;;;;4.74;80.53;101630.81;4868418;29;20107;-85
2021/01/26 01:10:15;;;;;;;86.97;52.08;;;;;;;4.92;81.56;101671.59;4874825;29;20119;-86
2021/01/26 01:12:42;;;;;;;84.68;55.05;;;;;;;3.92;81.46;101488.13;4885707;29;20072;-86
2021/01/26 01:15:10;;;;;;;87.30;56.40;;;;;;;4.57;80.73;101585.44;4882444;29;20033;-86
2021/01/26 01:17:37;;;;;;;86.53;52.65;;;;;;;5.12;80.16;101686.63;4887332;29;20387;-85
2021/01/26 01:20:06;;;;;;;81.25;51.03;;;;;;;4.92;80.25;101677.09;4867221;29;20554;-85
2021/01/26 01:22:33;;;;;;;76.20;51.03;;;;;;;4.63;80.48;101621.16;4866199;29;20077;-84
2021/01/26 01:25:00;;;;;;;79.65;47.10;;;;;;;4.65;80.85;101605.38;4868931;29;20060;-85
2021/01/26 01:27:26;;;;;;;67.60;42.55;;;;;;;5.14;79.23;101657.09;4867813;29;20021;-86
2021/01/26 01:29:53;;;;;;;68.55;44.13;;;;;;;4.89;78.57;101602.53;4868571;29;20471;-86
2021/01/26 01:32:20;;;;;;;74.50;45.28;;;;;;;4.77;79.07;101575.56;4867646;29;20028;-86
2021/01/26 01:34:47;;;;;;;74.05;46.80;;;;;;;4.69;79.04;101570.16;4864521;29;20131;-85
2021/01/26 01:37:14;;;;;;;74.55;46.40;;;;;;;5.32;79.44;101690.50;4867586;29;20081;-84
2021/01/26 01:39:41;;;;;;;71.50;46.92;;;;;;;4.49;79.31;101551.56;4869142;29;20054;-85
2021/01/26 01:42:12;;;;;;;66.28;42.25;;;;;;;5.09;79.19;101615.63;4889821;29;20033;-84
2021/01/26 01:44:39;;;;;;;75.60;45.83;;;;;;;4.33;78.49;101503.25;4886269;29;20119;-84
2021/01/26 01:47:16;;;;;;;68.72;44.75;;;;;;;4.72;79.20;101610.97;4882728;29;20026;-87
2021/01/26 01:49:46;;;;;;;67.50;44.03;;;;;;;4.10;79.17;101487.75;4883860;29;20029;-85
2021/01/26 01:52:27;;;;;;;74.32;48.95;;;;;;;4.98;79.09;101611.50;4883839;29;20090;-85
2021/01/26 01:55:05;;;;;;;76.97;52.20;;;;;;;4.73;79.66;101565.16;4874141;29;20034;-87
2021/01/26 01:57:37;;;;;;;78.43;50.58;;;;;;;5.23;78.94;101627.66;4865537;29;20120;-85
2021/01/26 02:00:12;;;;;;;86.28;53.03;;;;;;;5.49;80.00;101682.03;4880383;29;20360;-86
2021/01/26 02:02:44;;;;;;;74.93;50.83;;;;;;;5.53;79.29;101677.00;4885970;29;20024;-85
2021/01/26 02:05:15;;;;;;;72.78;44.75;;;;;;;4.66;79.21;101545.88;4881676;29;20570;-86
2021/01/26 02:07:42;;;;;;;75.15;47.15;;;;;;;4.32;80.32;101544.56;4873262;29;20428;-85
2021/01/26 02:10:11;;;;;;;72.75;48.45;;;;;;;4.38;79.77;101550.16;4891331;29;20039;-85
2021/01/26 02:12:38;;;;;;;75.60;50.58;;;;;;;4.57;80.70;101586.25;4884493;29;20057;-86
2021/01/26 02:15:06;;;;;;;78.47;48.78;;;;;;;4.91;80.85;101677.28;4871162;29;20035;-87
2021/01/26 02:17:54;;;;;;;80.50;52.47;;;;;;;5.03;80.67;101670.28;4870563;29;20025;-83
2021/01/26 02:20:40;;;;;;;78.75;48.97;;;;;;;5.21;80.27;101669.00;4866083;29;20409;-86
2021/01/26 02:23:34;;;;;;;90.72;53.80;;;;;;;5.37;79.62;101667.09;4865375;29;20049;-85
2021/01/26 02:26:34;;;;;;;78.95;51.33;;;;;;;5.29;80.87;101674.41;4881724;29;20040;-84
2021/01/26 02:29:22;;;;;;;78.72;52.47;;;;;;;4.68;80.21;101565.72;4879233;29;20308;-85
2021/01/26 02:32:10;;;;;;;86.03;54.38;;;;;;;5.33;79.93;101667.50;4865935;29;20037;-86
2021/01/26 02:35:19;;;;;;;83.43;55.70;;;;;;;5.41;80.52;101673.91;4878579;29;20028;-86
2021/01/26 02:38:23;;;;;;;85.90;55.20;;;;;;;5.39;79.70;101621.06;4878441;29;20565;-87
2021/01/26 02:41:03;;;;;;;92.00;56.53;;;;;;;5.57;80.32;101659.94;4868007;29;20037;-85
2021/01/26 02:43:42;;;;;;;78.22;51.28;;;;;;;5.50;79.42;101650.78;4844214;29;20037;-85
2021/01/26 02:46:34;;;;;;;92.28;55.53;;;;;;;5.43;79.62;101625.13;4856590;29;20068;-86
2021/01/26 02:49:33;;;;;;;83.82;56.67;;;;;;;5.60;80.11;101651.28;4855605;29;20475;-85
2021/01/26 02:52:07;;;;;;;88.82;53.25;;;;;;;5.83;78.47;101650.25;4845189;29;20467;-86
2021/01/26 02:54:41;;;;;;;84.15;53.83;;;;;;;5.70;78.97;101634.50;4870043;29;20034;-86
2021/01/26 02:57:10;;;;;;;84.22;53.38;;;;;;;5.91;77.82;101652.03;4842900;29;20029;-85
2021/01/26 02:59:49;;;;;;;83.72;50.60;;;;;;;5.82;79.15;101651.31;4847533;29;20536;-85
2021/01/26 03:03:01;;;;;;;81.85;53.53;;;;;;;5.43;80.53;101655.34;4859640;29;20030;-84
2021/01/26 03:05:40;;;;;;;80.95;52.67;;;;;;;4.83;80.74;101549.25;4773789;29;20038;-85
2021/01/26 03:08:24;;;;;;;91.70;55.83;;;;;;;5.73;79.93;101649.75;4859933;29;20049;-86
2021/01/26 03:11:07;;;;;;;78.20;51.25;;;;;;;5.60;80.02;101644.97;4853653;29;20050;-86
2021/01/26 03:13:37;;;;;;;86.97;53.13;;;;;;;5.78;79.60;101633.53;4851093;29;20038;-84
2021/01/26 03:16:10;;;;;;;82.70;53.47;;;;;;;5.95;78.93;101641.50;4851379;29;20033;-85
2021/01/26 03:18:46;;;;;;;79.20;53.42;;;;;;;5.42;78.76;101554.75;4877641;29;20037;-86
2021/01/26 03:21:18;;;;;;;78.07;51.17;;;;;;;5.74;79.95;101654.19;4864065;29;20045;-85
2021/01/26 03:24:01;;;;;;;81.38;54.17;;;;;;;6.13;78.88;101636.41;4870081;29;20039;-84
2021/01/26 03:26:29;;;;;;;73.15;48.05;;;;;;;6.21;78.13;101624.41;4850852;29;20368;-85
2021/01/26 03:28:59;;;;;;;80.28;50.10;;;;;;;5.16;79.04;101521.34;4869841;29;20076;-84
2021/01/26 03:31:38;;;;;;;76.38;49.13;;;;;;;5.34;79.47;101553.84;4854653;29;20025;-86
2021/01/26 03:34:05;;;;;;;71.40;46.60;;;;;;;5.93;79.27;101624.38;4873521;29;20124;-86
2021/01/26 03:36:31;;;;;;;75.05;50.17;;;;;;;4.20;78.78;101341.34;4875288;29;20093;-86
2021/01/26 03:39:01;;;;;;;72.60;49.72;;;;;;;4.81;79.78;101460.78;4867755;29;20049;-85
2021/01/26 03:41:29;;;;;;;81.15;49.15;;;;;;;5.12;79.62;101478.00;4887448;29;20044;-85
2021/01/26 03:43:56;;;;;;;75.75;49.35;;;;;;;5.20;80.17;101530.03;4866011;29;20150;-83
2021/01/26 03:46:48;;;;;;;73.93;51.25;;;;;;;5.94;79.67;101593.09;4881314;29;20053;-85
2021/01/26 03:49:42;;;;;;;71.70;45.75;;;;;;;4.54;80.33;101396.56;4864384;29;20029;-84
2021/01/26 03:52:20;;;;;;;78.03;49.72;;;;;;;5.41;81.71;101580.53;4876011;29;20025;-86
2021/01/26 03:55:09;;;;;;;73.55;47.35;;;;;;;5.33;80.99;101502.72;4873539;29;20025;-85
2021/01/26 03:57:42;;;;;;;75.28;46.42;;;;;;;5.82;80.81;101568.88;4878955;29;20120;-85
2021/01/26 04:00:22;;;;;;;76.57;46.65;;;;;;;5.11;80.38;101437.88;4881672;29;20032;-85
2021/01/26 04:02:58;;;;;;;71.18;47.55;;;;;;;5.52;80.64;101483.84;4868518;29;20475;-85
2021/01/26 04:05:53;;;;;;;76.43;48.88;;;;;;;5.34;80.78;101493.44;4881494;29;20483;-86
2021/01/26 04:08:37;;;;;;;82.30;46.47;;;;;;;5.82;81.30;101537.81;4878848;29;20032;-86
2021/01/26 04:11:25;;;;;;;76.47;48.60;;;;;;;4.96;80.65;101389.41;4888447;29;20036;-86
2021/01/26 04:14:00;;;;;;;83.38;51.10;;;;;;;5.80;81.00;101527.00;4883966;29;20029;-85
2021/01/26 04:16:35;;;;;;;83.80;51.13;;;;;;;5.26;81.17;101397.47;4879588;29;20405;-84
2021/01/26 04:19:05;;;;;;;83.95;51.10;;;;;;;6.02;81.34;101513.25;4891604;29;20033;-85
2021/01/26 04:21:34;;;;;;;85.90;51.38;;;;;;;5.42;81.63;101428.44;4891274;29;20027;-85
2021/01/26 04:24:02;;;;;;;89.93;52.25;;;;;;;5.92;81.97;101485.22;4888745;29;20455;-86
2021/01/26 04:26:32;;;;;;;95.03;53.97;;;;;;;5.36;82.41;101410.00;4886043;29;20021;-83
2021/01/26 04:28:59;;;;;;;99.80;54.20;;;;;;;5.10;82.32;101353.84;4881908;29;20059;-85
2021/01/26 04:31:26;;;;;;;109.35;59.50;;;;;;;5.31;81.82;101355.69;4871658;29;20501;-83
2021/01/26 04:33:53;;;;;;;93.28;57.15;;;;;;;5.37;82.65;101381.47;4879304;29;20064;-85
2021/01/26 04:36:22;;;;;;;114.50;62.58;;;;;;;5.45;82.55;101382.19;4886801;29;20029;-86
2021/01/26 04:38:49;;;;;;;104.68;57.28;;;;;;;5.45;83.17;101379.44;4863474;29;20468;-84
2021/01/26 04:42:03;;;;;;;121.22;63.15;;;;;;;5.43;83.37;101365.06;4851789;29;20041;-83
2021/01/26 04:44:55;;;;;;;114.10;60.33;;;;;;;5.51;83.14;101366.81;4803042;29;20027;-83
2021/01/26 04:47:49;;;;;;;113.07;61.85;;;;;;;5.92;83.59;101452.22;4865459;29;20033;-87
2021/01/26 04:50:28;;;;;;;118.05;63.60;;;;;;;5.81;84.49;101451.75;4867128;29;20160;-86
2021/01/26 04:53:21;;;;;;;113.43;61.22;;;;;;;5.84;84.94;101447.75;4861837;29;20037;-86
2021/01/26 04:56:11;;;;;;;117.07;62.42;;;;;;;5.31;84.69;101345.56;4822388;29;20052;-83
2021/01/26 04:59:05;;;;;;;117.60;62.90;;;;;;;6.01;84.77;101453.78;4870964;29;20032;-85
2021/01/26 05:01:56;;;;;;;111.07;61.63;;;;;;;5.98;84.66;101454.19;4862159;29;20040;-84
2021/01/26 05:04:31;;;;;;;121.10;64.55;;;;;;;6.05;84.69;101460.59;4863283;29;20037;-84
2021/01/26 05:07:17;;;;;;;111.72;57.85;;;;;;;5.73;84.90;101416.19;4860699;29;20539;-85
2021/01/26 05:10:11;;;;;;;120.90;61.90;;;;;;;5.18;86.88;101373.75;4845311;29;20129;-85
2021/01/26 05:12:48;;;;;;;127.82;66.80;;;;;;;5.07;87.24;101377.03;4847101;29;20871;-85
2021/01/26 05:15:22;;;;;;;122.68;61.20;;;;;;;4.67;87.71;101273.28;4859961;29;20037;-84
2021/01/26 05:17:58;;;;;;;134.73;64.35;;;;;;;5.16;89.18;101428.00;4871415;29;20472;-84
2021/01/26 05:20:32;;;;;;;133.85;64.47;;;;;;;5.30;89.40;101407.00;4851811;29;20033;-84
2021/01/26 05:23:30;;;;;;;130.85;65.20;;;;;;;4.85;92.24;101458.50;4863775;29;20021;-86
2021/01/26 05:25:57;;;;;;;138.68;59.42;;;;;;;4.35;93.78;101390.66;4844261;29;20097;-87
2021/01/26 05:28:24;;;;;;;130.77;64.03;;;;;;;4.46;93.46;101392.88;4844749;29;20376;-86
2021/01/26 05:30:56;;;;;;;135.30;61.58;;;;;;;5.09;92.94;101443.56;4860133;29;20034;-85
2021/01/26 05:33:24;;;;;;;130.98;61.47;;;;;;;4.42;93.62;101423.63;4844639;29;20036;-86
2021/01/26 05:36:01;;;;;;;139.77;66.18;;;;;;;4.32;93.87;101377.31;4861509;29;20064;-85
2021/01/26 05:38:28;;;;;;;128.05;62.22;;;;;;;3.75;94.24;101267.47;4867049;29;20032;-87
2021/01/26 05:41:09;;;;;;;150.05;67.40;;;;;;;4.75;94.45;101456.94;4863586;29;20037;-85
2021/01/26 05:43:37;;;;;;;148.95;68.18;;;;;;;4.77;94.50;101456.75;4872023;29;20499;-86
2021/01/26 05:46:08;;;;;;;152.82;71.32;;;;;;;4.59;95.12;101455.25;4878432;29;20045;-88
2021/01/26 05:48:50;;;;;;;154.70;71.43;;;;;;;4.20;96.20;101429.91;4865109;29;20052;-84
2021/01/26 05:51:26;;;;;;;172.90;69.40;;;;;;;4.31;96.93;101457.88;4862394;29;20037;-88
2021/01/26 05:54:10;;;;;;;157.32;66.95;;;;;;;2.88;96.99;101224.19;4864129;29;20115;-87
2021/01/26 05:56:46;;;;;;;172.13;69.97;;;;;;;4.26;97.33;101465.84;4862619;29;20041;-88
2021/01/26 05:59:34;;;;;;;174.15;65.80;;;;;;;3.73;97.52;101387.34;4880511;29;20051;-88
2021/01/26 06:02:16;;;;;;;170.88;65.20;;;;;;;3.91;98.40;101434.38;4864872;29;20040;-87
2021/01/26 06:04:43;;;;;;;143.75;50.05;;;;;;;3.84;99.16;101411.50;4859490;29;20040;-85
2021/01/26 06:07:26;;;;;;;126.22;51.42;;;;;;;3.41;98.62;101336.31;4887029;29;20029;-87
2021/01/26 06:09:53;;;;;;;147.18;53.53;;;;;;;3.13;98.87;101311.47;4855330;29;20127;-89
2021/01/26 06:12:25;;;;;;;126.60;48.78;;;;;;;3.59;99.49;101359.75;4891008;29;20037;-87
2021/01/26 06:14:56;;;;;;;144.75;49.72;;;;;;;4.15;99.17;101451.56;4870068;29;20914;-87
2021/01/26 06:17:33;;;;;;;144.70;49.97;;;;;;;4.30;99.16;101453.44;4877771;29;20538;-86
2021/01/26 06:20:18;;;;;;;309.67;70.45;;;;;;;3.81;99.14;101406.41;4871961;29;20088;-86
2021/01/26 06:22:45;;;;;;;297.40;56.50;;;;;;;3.52;98.67;101364.28;4862944;29;20044;-86
2021/01/26 06:25:27;;;;;;;153.50;47.25;;;;;;;4.10;98.69;101459.50;4861443;29;20131;-85
2021/01/26 06:28:04;;;;;;;130.82;34.55;;;;;;;4.17;98.85;101463.16;4861624;29;20457;-86
2021/01/26 06:30:39;;;;;;;276.05;60.03;;;;;;;4.13;98.76;101463.75;4877476;29;20399;-83
2021/01/26 06:33:09;;;;;;;195.68;46.33;;;;;;;4.16;98.94;101464.22;4865965;29;20037;-85
2021/01/26 06:36:13;;;;;;;331.15;57.78;;;;;;;3.92;98.90;101474.41;4878435;29;20013;-87
2021/01/26 06:39:01;;;;;;;133.10;30.80;;;;;;;3.92;99.26;101473.59;4853713;29;20057;-87
2021/01/26 06:41:48;;;;;;;126.78;34.95;;;;;;;3.83;99.32;101459.13;4882924;29;20037;-87
2021/01/26 06:44:21;;;;;;;141.20;39.88;;;;;;;3.75;99.61;101451.81;4855415;29;20037;-86
2021/01/26 06:47:18;;;;;;;139.43;42.10;;;;;;;3.85;99.48;101465.25;4872742;29;20029;-86
2021/01/26 06:50:10;;;;;;;132.35;42.15;;;;;;;3.77;99.79;101463.47;4861489;29;20040;-85
2021/01/26 06:52:57;;;;;;;108.70;39.20;;;;;;;3.18;99.18;101373.84;4862740;29;20079;-85
2021/01/26 06:55:31;;;;;;;107.30;41.95;;;;;;;3.88;99.00;101473.13;4861093;29;20040;-85
2021/01/26 06:58:11;;;;;;;114.75;44.42;;;;;;;3.74;98.63;101465.72;4877651;29;20063;-83
2021/01/26 07:01:04;;;;;;;111.95;44.53;;;;;;;3.31;98.44;101368.59;4872267;29;20060;-86
2021/01/26 07:03:50;;;;;;;106.47;45.13;;;;;;;3.85;97.74;101468.00;4868986;29;20025;-82
2021/01/26 07:06:22;;;;;;;118.57;49.50;;;;;;;3.72;97.78;101471.38;4885473;29;20035;-89
2021/01/26 07:09:20;;;;;;;125.32;54.00;;;;;;;3.74;97.11;101472.03;4898584;29;20068;-86
2021/01/26 07:12:11;;;;;;;115.20;48.20;;;;;;;3.87;96.91;101465.91;4875734;29;20037;-89
2021/01/26 07:15:00;;;;;;;107.15;47.83;;;;;;;3.84;96.32;101471.78;4878725;29;20028;-85
2021/01/26 07:18:03;;;;;;;99.43;44.55;;;;;;;3.75;95.05;101478.38;4879197;29;20041;-85
2021/01/26 07:21:00;;;;;;;102.03;46.17;;;;;;;3.72;94.93;101484.22;4882058;29;20978;-87
2021/01/26 07:23:27;;;;;;;112.70;51.22;;;;;;;3.63;94.72;101487.03;4856343;29;20550;-87
2021/01/26 07:26:25;;;;;;;95.88;45.75;;;;;;;3.55;95.46;101484.38;4877536;29;20037;-87
2021/01/26 07:29:06;;;;;;;91.75;39.75;;;;;;;3.47;94.33;101444.25;4857651;29;20088;-91
2021/01/26 07:31:50;;;;;;;75.05;35.80;;;;;;;3.55;93.41;101500.81;4863257;29;20129;-88
2021/01/26 07:34:33;;;;;;;74.03;37.38;;;;;;;3.34;92.96;101471.38;4879297;29;20083;-86
2021/01/26 07:37:12;;;;;;;62.60;33.75;;;;;;;3.13;92.59;101408.09;4874127;29;20040;-86
2021/01/26 07:39:56;;;;;;;80.75;38.85;;;;;;;2.87;91.84;101357.34;4865313;29;20499;-86
2021/01/26 07:42:26;;;;;;;85.85;39.42;;;;;;;3.78;91.68;101489.81;4874396;29;20135;-85
2021/01/26 07:45:10;;;;;;;87.57;38.85;;;;;;;3.81;91.66;101494.06;4875064;29;20049;-86
2021/01/26 07:48:09;;;;;;;74.57;36.88;;;;;;;3.41;91.03;101391.06;4877296;29;20029;-85
2021/01/26 07:50:49;;;;;;;65.38;35.17;;;;;;;3.84;90.28;101477.25;4863037;29;20037;-84
2021/01/26 07:53:22;;;;;;;;;;;;;;;3.86;90.69;101509.94;4874087;29;20514;-87
2021/01/26 07:55:57;;;;;;;75.32;36.72;;;;;;;3.77;91.37;101520.13;4865955;29;20370;-86
2021/01/26 07:58:25;;;;;;;83.38;40.65;;;;;;;3.72;90.83;101467.78;4853969;29;20033;-85
2021/01/26 08:00:58;;;;;;;78.55;38.83;;;;;;;3.97;90.37;101504.84;4855549;29;20029;-86
2021/01/26 08:03:27;;;;;;;71.47;36.53;;;;;;;3.02;90.58;101386.63;4856175;29;21308;-86
2021/01/26 08:05:59;;;;;;;75.05;38.55;;;;;;;3.39;90.74;101447.06;4864094;29;20043;-88
2021/01/26 08:08:39;;;;;;;69.32;37.92;;;;;;;3.83;90.16;101525.72;4879858;29;20037;-86
2021/01/26 08:11:25;;;;;;;67.85;36.13;;;;;;;3.36;89.24;101437.31;4865271;29;20395;-85
2021/01/26 08:14:06;;;;;;;64.90;34.80;;;;;;;4.28;88.92;101526.81;4863219;29;20037;-84
2021/01/26 08:16:42;;;;;;;58.88;32.92;;;;;;;3.76;87.49;101461.78;4876492;29;20043;-86
2021/01/26 08:19:20;;;;;;;54.08;31.50;;;;;;;4.31;86.60;101527.28;4888187;29;20068;-84
2021/01/26 08:21:48;;;;;;;48.15;29.17;;;;;;;3.95;87.14;101508.81;4878605;29;20108;-84
2021/01/26 08:24:33;;;;;;;56.22;31.17;;;;;;;4.09;87.19;101524.44;4865689;29;20028;-86
2021/01/26 08:27:30;;;;;;;56.78;28.65;;;;;;;4.18;86.52;101532.56;4864527;29;20813;-85
2021/01/26 08:30:05;;;;;;;40.60;22.98;;;;;;;3.14;87.20;101398.84;4874059;29;20109;-88
2021/01/26 08:32:31;;;;;;;48.45;28.08;;;;;;;3.89;88.00;101540.56;4878411;29;20117;-92
2021/01/26 08:35:04;;;;;;;47.05;28.25;;;;;;;3.77;87.52;101536.56;4888287;29;20041;-87
2021/01/26 08:37:43;;;;;;;39.78;25.90;;;;;;;4.00;86.82;101541.13;4861690;29;20093;-92
2021/01/26 08:40:17;;;;;;;40.75;26.92;;;;;;;3.81;86.69;101540.63;4873152;29;20062;-85
2021/01/26 08:42:44;;;;;;;33.47;23.10;;;;;;;3.90;86.36;101544.13;4877274;29;20041;-87
2021/01/26 08:45:46;;;;;;;37.45;25.45;;;;;;;3.49;86.53;101463.19;4883071;29;20037;-85
2021/01/26 08:48:30;;;;;;;34.47;23.33;;;;;;;3.79;84.92;101542.69;4879349;29;20542;-87
2021/01/26 08:50:57;;;;;;;37.97;24.92;;;;;;;4.06;85.15;101554.97;4877543;29;20435;-87
2021/01/26 08:53:30;;;;;;;38.45;24.40;;;;;;;4.31;84.88;101556.56;4871466;29;20448;-86
2021/01/26 08:56:03;;;;;;;37.13;24.30;;;;;;;4.30;84.02;101565.84;4874811;29;20041;-85
2021/01/26 08:58:47;;;;;;;38.45;24.23;;;;;;;3.66;83.32;101442.84;4863759;29;20558;-83
2021/01/26 09:01:23;;;;;;;34.35;22.55;;;;;;;4.29;82.92;101572.34;4883107;29;20132;-91
2021/01/26 09:03:52;;;;;;;36.28;21.85;;;;;;;4.07;83.81;101591.41;4880997;29;20061;-88
2021/01/26 09:06:43;;;;;;;36.35;22.95;;;;;;;3.99;83.88;101580.53;4870214;29;20403;-81
2021/01/26 09:09:31;;;;;;;44.38;24.98;;;;;;;3.39;83.64;101486.22;4875640;29;20033;-81
2021/01/26 09:12:03;;;;;;;40.35;23.60;;;;;;;3.17;83.69;101487.94;4860586;29;20047;-82
2021/01/26 09:14:50;;;;;;;31.83;22.25;;;;;;;3.52;83.97;101586.06;4883829;29;20043;-88
2021/01/26 09:17:26;;;;;;;36.88;23.60;;;;;;;3.62;85.33;101626.91;4884562;29;20043;-90
2021/01/26 09:19:58;;;;;;;35.70;24.13;;;;;;;3.54;84.96;101625.06;4878025;29;20095;-87
2021/01/26 09:22:31;;;;;;;39.50;26.08;;;;;;;3.60;84.58;101624.34;4880362;29;20025;-87
2021/01/26 09:25:03;;;;;;;42.25;25.80;;;;;;;3.73;83.80;101626.47;4866715;29;20482;-88
2021/01/26 09:27:34;;;;;;;41.40;26.95;;;;;;;3.11;84.09;101566.16;4868899;29;20509;-88
2021/01/26 09:30:20;;;;;;;40.95;26.05;;;;;;;3.66;84.15;101639.19;4883371;29;20571;-83
2021/01/26 09:33:21;;;;;;;41.25;27.42;;;;;;;3.35;83.75;101599.00;4883761;29;20040;-91
2021/01/26 09:36:01;;;;;;;41.78;28.23;;;;;;;3.63;83.89;101651.34;4868649;29;20487;-84
2021/01/26 09:38:44;;;;;;;43.90;28.88;;;;;;;3.17;83.60;101574.66;4878937;29;20037;-92
2021/01/26 09:41:23;;;;;;;41.83;28.63;;;;;;;3.18;83.85;101628.34;4863274;29;20044;-87
2021/01/26 09:44:10;;;;;;;52.42;32.80;;;;;;;3.54;83.28;101669.75;4878426;29;20044;-87
2021/01/26 09:46:38;;;;;;;50.45;29.73;;;;;;;3.60;82.99;101632.56;4885852;29;20039;-84
2021/01/26 09:49:08;;;;;;;43.22;29.15;;;;;;;3.78;82.86;101665.13;4881429;29;20052;-86
2021/01/26 09:51:55;;;;;;;46.55;30.67;;;;;;;2.74;83.36;101522.06;4865417;29;20072;-86
2021/01/26 09:54:43;;;;;;;48.15;31.25;;;;;;;2.63;82.89;101518.88;4861925;29;20089;-84
2021/01/26 09:57:16;;;;;;;49.63;31.48;;;;;;;2.73;82.34;101524.97;4881113;29;20039;-82
2021/01/26 09:59:47;;;;;;;45.80;29.58;;;;;;;3.03;81.87;101563.44;4881250;29;20041;-82
2021/01/26 10:02:16;;;;;;;46.75;31.95;;;;;;;3.53;82.36;101656.22;4865994;29;20029;-84
2021/01/26 10:04:45;;;;;;;49.25;33.88;;;;;;;3.15;82.48;101605.78;4865498;29;20032;-85
2021/01/26 10:07:18;;;;;;;48.25;30.65;;;;;;;2.78;82.03;101538.13;4880945;29;20049;-84
2021/01/26 10:09:45;;;;;;;48.30;31.15;;;;;;;4.01;81.01;101696.28;4872666;29;20729;-86
2021/01/26 10:12:34;;;;;;;49.13;30.40;;;;;;;4.03;80.17;101695.06;4876004;29;20553;-85
2021/01/26 10:15:34;;;;;;;47.28;32.63;;;;;;;3.99;80.63;101696.50;4875405;29;20037;-83
2021/01/26 10:18:07;;;;;;;54.80;34.30;;;;;;;3.46;80.61;101638.81;4859909;29;20033;-82
2021/01/26 10:20:38;;;;;;;45.33;29.88;;;;;;;3.85;79.68;101654.28;4855646;29;20037;-83
2021/01/26 10:23:10;;;;;;;48.88;30.75;;;;;;;3.39;78.87;101605.84;4878305;29;20041;-83
2021/01/26 10:25:38;;;;;;;49.90;31.83;;;;;;;3.67;79.62;101673.75;4872413;29;20030;-84
2021/01/26 10:28:28;;;;;;;45.90;31.90;;;;;;;3.93;79.43;101691.75;4864007;29;20134;-81
2021/01/26 10:30:56;;;;;;;48.40;29.48;;;;;;;4.00;78.79;101691.84;4864398;29;20064;-85
2021/01/26 10:33:38;;;;;;;53.58;31.65;;;;;;;3.35;79.07;101588.91;4872904;29;20048;-84
2021/01/26 10:36:26;;;;;;;49.78;32.75;;;;;;;4.02;78.84;101692.50;4874356;29;20547;-82
2021/01/26 10:38:54;;;;;;;51.38;32.92;;;;;;;3.94;78.05;101677.84;4867635;29;20128;-84
2021/01/26 10:41:38;;;;;;;48.10;31.33;;;;;;;3.90;78.87;101687.47;4869576;29;20072;-85
2021/01/26 10:44:10;;;;;;;44.45;31.67;;;;;;;2.59;78.25;101472.75;4862980;29;20033;-83
2021/01/26 10:46:47;;;;;;;48.00;33.80;;;;;;;3.41;78.42;101631.97;4865396;29;20016;-86
2021/01/26 10:49:35;;;;;;;43.33;29.75;;;;;;;3.01;78.88;101588.25;4864322;29;20161;-85
2021/01/26 10:52:08;;;;;;;50.67;29.58;;;;;;;3.63;78.86;101700.66;4876683;29;21260;-86
2021/01/26 10:54:37;;;;;;;47.90;30.25;;;;;;;2.81;79.16;101557.75;4877368;29;20029;-87
2021/01/26 10:57:04;;;;;;;50.35;30.83;;;;;;;3.60;78.85;101698.28;4863173;29;20040;-86
2021/01/26 10:59:31;;;;;;;52.20;33.95;;;;;;;2.42;78.87;101528.50;4863983;29;20036;-87
2021/01/26 11:01:58;;;;;;;52.72;31.05;;;;;;;3.10;78.70;101640.22;4867022;29;20556;-87
2021/01/26 11:04:26;;;;;;;48.53;31.55;;;;;;;3.08;78.22;101632.16;4869643;29;20033;-91
2021/01/26 11:06:53;;;;;;;50.33;31.75;;;;;;;2.54;78.03;101551.72;4881821;29;20029;-89
2021/01/26 11:09:19;;;;;;;49.53;31.52;;;;;;;3.58;77.94;101741.44;4886188;29;20033;-87
2021/01/26 11:11:46;;;;;;;57.30;32.60;;;;;;;3.58;78.19;101744.16;4871426;29;20036;-86
2021/01/26 11:14:14;;;;;;;52.05;30.80;;;;;;;3.12;77.95;101641.75;4863896;29;20076;-85
2021/01/26 11:16:41;;;;;;;47.25;31.40;;;;;;;3.40;77.68;101692.41;4868801;29;20381;-89
2021/01/26 11:19:21;;;;;;;54.75;31.60;;;;;;;3.33;77.32;101675.81;4902103;29;20021;-87
2021/01/26 11:22:18;;;;;;;49.03;31.13;;;;;;;3.71;77.11;101749.06;4898160;29;20053;-92
2021/01/26 11:24:45;;;;;;;48.95;30.50;;;;;;;3.34;76.98;101691.25;4865267;29;20411;-83
2021/01/26 11:27:12;;;;;;;51.75;32.92;;;;;;;2.60;76.56;101544.69;4884189;29;20028;-83
2021/01/26 11:29:48;;;;;;;57.30;34.60;;;;;;;3.41;76.68;101705.88;4875096;29;20033;-87
2021/01/26 11:32:17;;;;;;;56.63;34.55;;;;;;;2.92;76.43;101604.88;4864967;29;20071;-86
2021/01/26 11:34:48;;;;;;;49.55;32.72;;;;;;;2.87;76.57;101658.22;4881470;29;20035;-90
2021/01/26 11:37:16;;;;;;;48.17;34.55;;;;;;;2.97;76.86;101652.56;4878461;29;20120;-87
2021/01/26 11:39:43;;;;;;;52.78;35.67;;;;;;;2.72;76.11;101600.69;4876769;29;20045;-88
2021/01/26 11:42:10;;;;;;;54.00;34.80;;;;;;;2.82;76.25;101660.66;4882660;29;20029;-88
2021/01/26 11:44:37;;;;;;;51.20;34.42;;;;;;;3.39;76.29;101757.25;4879973;29;20043;-87
2021/01/26 11:47:18;;;;;;;55.78;34.67;;;;;;;2.81;75.52;101661.69;4876402;29;20064;-86
2021/01/26 11:49:45;;;;;;;51.03;36.42;;;;;;;2.25;75.64;101555.91;4874877;29;20044;-87
2021/01/26 11:52:12;;;;;;;52.05;34.75;;;;;;;2.72;75.18;101632.66;4859964;29;20033;-88
2021/01/26 11:54:39;;;;;;;57.25;36.03;;;;;;;3.03;75.38;101683.81;4865682;29;20048;-86
2021/01/26 11:57:07;;;;;;;52.65;34.47;;;;;;;3.32;75.24;101758.97;4864478;29;20029;-87
2021/01/26 11:59:35;;;;;;;55.22;37.10;;;;;;;2.82;75.05;101674.34;4888978;29;20443;-86